sensor_id;sensor_type;location;lat;lon;timestamp;temperature;humidity
3504;DHT22;1766;53.490;10.174;2023-11-21T00:00:55;15.50;65.70
3504;DHT22;1766;53.490;10.174;2023-11-21T00:02:57;15.50;65.80
3504;DHT22;1766;53.490;10.174;2023-11-21T00:04:59;15.40;65.60
3504;DHT22;1766;53.490;10.174;2023-11-21T00:07:00;15.50;65.70
3504;DHT22;1766;53.490;10.174;2023-11-21T00:09:02;15.30;65.50
3504;DHT22;1766;53.490;10.174;2023-11-21T00:11:05;15.30;65.50
3504;DHT22;1766;53.490;10.174;2023-11-21T00:13:06;15.20;65.50
3504;DHT22;1766;53.490;10.174;2023-11-21T00:15:09;15.20;65.30
3504;DHT22;1766;53.490;10.174;2023-11-21T00:17:13;15.20;65.60
3504;DHT22;1766;53.490;10.174;2023-11-21T00:19:15;15.20;65.40
3504;DHT22;1766;53.490;10.174;2023-11-21T00:21:17;15.20;65.60
3504;DHT22;1766;53.490;10.174;2023-11-21T00:23:19;15.10;65.30
3504;DHT22;1766;53.490;10.174;2023-11-21T00:25:21;15.10;65.30
3504;DHT22;1766;53.490;10.174;2023-11-21T00:27:22;15.10;65.10
3504;DHT22;1766;53.490;10.174;2023-11-21T00:29:23;15.00;65.00
3504;DHT22;1766;53.490;10.174;2023-11-21T00:31:26;15.00;65.10
3504;DHT22;1766;53.490;10.174;2023-11-21T00:33:28;15.00;65.00
3504;DHT22;1766;53.490;10.174;2023-11-21T00:35:30;15.00;65.00
3504;DHT22;1766;53.490;10.174;2023-11-21T00:37:32;14.90;65.00
3504;DHT22;1766;53.490;10.174;2023-11-21T00:39:34;14.90;65.10
3504;DHT22;1766;53.490;10.174;2023-11-21T00:41:35;14.90;65.10
3504;DHT22;1766;53.490;10.174;2023-11-21T00:43:37;14.90;65.00
3504;DHT22;1766;53.490;10.174;2023-11-21T00:45:39;15.30;66.10
3504;DHT22;1766;53.490;10.174;2023-11-21T00:47:41;14.80;64.80
3504;DHT22;1766;53.490;10.174;2023-11-21T00:49:45;14.80;64.80
3504;DHT22;1766;53.490;10.174;2023-11-21T00:51:46;14.80;64.80
3504;DHT22;1766;53.490;10.174;2023-11-21T00:53:47;14.70;64.60
3504;DHT22;1766;53.490;10.174;2023-11-21T00:55:49;14.70;64.80
3504;DHT22;1766;53.490;10.174;2023-11-21T00:57:52;14.60;64.70
3504;DHT22;1766;53.490;10.174;2023-11-21T00:59:54;14.60;64.70
3504;DHT22;1766;53.490;10.174;2023-11-21T01:01:56;14.80;64.90
3504;DHT22;1766;53.490;10.174;2023-11-21T01:04:00;14.60;64.70
3504;DHT22;1766;53.490;10.174;2023-11-21T01:06:04;14.60;64.50
3504;DHT22;1766;53.490;10.174;2023-11-21T01:08:08;14.50;64.50
3504;DHT22;1766;53.490;10.174;2023-11-21T01:10:11;14.50;64.40
3504;DHT22;1766;53.490;10.174;2023-11-21T01:12:13;14.50;64.30
3504;DHT22;1766;53.490;10.174;2023-11-21T01:14:14;14.40;64.20
3504;DHT22;1766;53.490;10.174;2023-11-21T01:16:18;14.40;64.10
3504;DHT22;1766;53.490;10.174;2023-11-21T01:18:20;14.40;64.30
3504;DHT22;1766;53.490;10.174;2023-11-21T01:20:21;14.30;64.20
3504;DHT22;1766;53.490;10.174;2023-11-21T01:22:25;14.30;64.20
3504;DHT22;1766;53.490;10.174;2023-11-21T01:24:26;14.20;64.10
3504;DHT22;1766;53.490;10.174;2023-11-21T01:26:28;14.30;64.20
3504;DHT22;1766;53.490;10.174;2023-11-21T01:28:29;14.30;64.30
3504;DHT22;1766;53.490;10.174;2023-11-21T01:30:32;14.30;64.30
3504;DHT22;1766;53.490;10.174;2023-11-21T01:32:33;14.30;64.20
3504;DHT22;1766;53.490;10.174;2023-11-21T01:34:35;14.30;64.10
3504;DHT22;1766;53.490;10.174;2023-11-21T01:36:37;14.30;64.20
3504;DHT22;1766;53.490;10.174;2023-11-21T01:38:40;14.30;64.20
3504;DHT22;1766;53.490;10.174;2023-11-21T01:40:42;14.30;64.00
3504;DHT22;1766;53.490;10.174;2023-11-21T01:42:45;14.20;63.80
3504;DHT22;1766;53.490;10.174;2023-11-21T01:44:47;14.20;63.70
3504;DHT22;1766;53.490;10.174;2023-11-21T01:46:50;14.20;63.70
3504;DHT22;1766;53.490;10.174;2023-11-21T01:48:52;14.10;63.70
3504;DHT22;1766;53.490;10.174;2023-11-21T01:50:55;14.10;63.80
3504;DHT22;1766;53.490;10.174;2023-11-21T01:52:58;14.20;63.90
3504;DHT22;1766;53.490;10.174;2023-11-21T01:55:01;14.20;63.80
3504;DHT22;1766;53.490;10.174;2023-11-21T01:57:04;14.10;63.70
3504;DHT22;1766;53.490;10.174;2023-11-21T01:59:07;14.10;63.70
3504;DHT22;1766;53.490;10.174;2023-11-21T02:01:08;14.10;63.60
3504;DHT22;1766;53.490;10.174;2023-11-21T02:03:11;14.10;63.50
3504;DHT22;1766;53.490;10.174;2023-11-21T02:05:14;14.00;63.40
3504;DHT22;1766;53.490;10.174;2023-11-21T02:07:18;14.00;63.40
3504;DHT22;1766;53.490;10.174;2023-11-21T02:09:25;14.00;63.40
3504;DHT22;1766;53.490;10.174;2023-11-21T02:11:28;14.00;63.30
3504;DHT22;1766;53.490;10.174;2023-11-21T02:13:30;14.00;63.10
3504;DHT22;1766;53.490;10.174;2023-11-21T02:15:33;14.00;63.10
3504;DHT22;1766;53.490;10.174;2023-11-21T02:17:36;14.00;63.00
3504;DHT22;1766;53.490;10.174;2023-11-21T02:19:37;14.00;62.90
3504;DHT22;1766;53.490;10.174;2023-11-21T02:21:39;13.90;62.80
3504;DHT22;1766;53.490;10.174;2023-11-21T02:23:43;13.90;62.70
3504;DHT22;1766;53.490;10.174;2023-11-21T02:25:45;13.90;62.80
3504;DHT22;1766;53.490;10.174;2023-11-21T02:27:47;13.90;63.40
3504;DHT22;1766;53.490;10.174;2023-11-21T02:29:48;13.90;62.80
3504;DHT22;1766;53.490;10.174;2023-11-21T02:31:52;13.80;62.70
3504;DHT22;1766;53.490;10.174;2023-11-21T02:33:55;13.80;62.60
3504;DHT22;1766;53.490;10.174;2023-11-21T02:35:57;13.80;62.50
3504;DHT22;1766;53.490;10.174;2023-11-21T02:37:59;13.80;62.50
3504;DHT22;1766;53.490;10.174;2023-11-21T02:40:03;13.80;62.60
3504;DHT22;1766;53.490;10.174;2023-11-21T02:42:06;13.80;62.50
3504;DHT22;1766;53.490;10.174;2023-11-21T02:44:07;13.80;62.40
3504;DHT22;1766;53.490;10.174;2023-11-21T02:46:09;13.80;62.20
3504;DHT22;1766;53.490;10.174;2023-11-21T02:48:11;13.80;62.40
3504;DHT22;1766;53.490;10.174;2023-11-21T02:50:13;13.70;62.20
3504;DHT22;1766;53.490;10.174;2023-11-21T02:52:15;13.80;62.40
3504;DHT22;1766;53.490;10.174;2023-11-21T02:54:16;13.80;62.30
3504;DHT22;1766;53.490;10.174;2023-11-21T02:56:20;13.80;62.20
3504;DHT22;1766;53.490;10.174;2023-11-21T02:58:21;13.80;62.10
3504;DHT22;1766;53.490;10.174;2023-11-21T03:00:23;13.80;62.60
3504;DHT22;1766;53.490;10.174;2023-11-21T03:02:26;13.70;61.80
3504;DHT22;1766;53.490;10.174;2023-11-21T03:04:28;13.70;61.80
3504;DHT22;1766;53.490;10.174;2023-11-21T03:06:33;13.70;61.80
3504;DHT22;1766;53.490;10.174;2023-11-21T03:08:35;13.70;61.80
3504;DHT22;1766;53.490;10.174;2023-11-21T03:10:36;13.70;61.80
3504;DHT22;1766;53.490;10.174;2023-11-21T03:12:39;13.70;61.80
3504;DHT22;1766;53.490;10.174;2023-11-21T03:14:41;13.70;61.90
3504;DHT22;1766;53.490;10.174;2023-11-21T03:16:43;13.70;61.90
3504;DHT22;1766;53.490;10.174;2023-11-21T03:18:45;13.70;61.80
3504;DHT22;1766;53.490;10.174;2023-11-21T03:20:47;13.70;61.70
3504;DHT22;1766;53.490;10.174;2023-11-21T03:22:49;13.70;61.60
3504;DHT22;1766;53.490;10.174;2023-11-21T03:24:52;13.70;61.60
3504;DHT22;1766;53.490;10.174;2023-11-21T03:26:53;13.70;61.80
3504;DHT22;1766;53.490;10.174;2023-11-21T03:28:56;13.70;61.60
3504;DHT22;1766;53.490;10.174;2023-11-21T03:30:58;13.70;61.50
3504;DHT22;1766;53.490;10.174;2023-11-21T03:33:00;13.70;61.50
3504;DHT22;1766;53.490;10.174;2023-11-21T03:35:01;13.70;61.50
3504;DHT22;1766;53.490;10.174;2023-11-21T03:37:04;13.70;61.50
3504;DHT22;1766;53.490;10.174;2023-11-21T03:39:05;13.70;61.40
3504;DHT22;1766;53.490;10.174;2023-11-21T03:41:07;13.70;61.30
3504;DHT22;1766;53.490;10.174;2023-11-21T03:43:10;13.70;61.20
3504;DHT22;1766;53.490;10.174;2023-11-21T03:45:14;13.70;61.20
3504;DHT22;1766;53.490;10.174;2023-11-21T03:47:16;13.70;61.10
3504;DHT22;1766;53.490;10.174;2023-11-21T03:49:17;13.70;61.20
3504;DHT22;1766;53.490;10.174;2023-11-21T03:51:19;13.70;61.10
3504;DHT22;1766;53.490;10.174;2023-11-21T03:53:20;13.70;61.20
3504;DHT22;1766;53.490;10.174;2023-11-21T03:55:22;13.70;61.10
3504;DHT22;1766;53.490;10.174;2023-11-21T03:57:25;13.80;61.20
3504;DHT22;1766;53.490;10.174;2023-11-21T03:59:26;13.70;61.00
3504;DHT22;1766;53.490;10.174;2023-11-21T04:01:29;13.70;61.00
3504;DHT22;1766;53.490;10.174;2023-11-21T04:03:31;13.70;60.90
3504;DHT22;1766;53.490;10.174;2023-11-21T04:05:33;13.70;60.80
3504;DHT22;1766;53.490;10.174;2023-11-21T04:07:34;13.80;60.90
3504;DHT22;1766;53.490;10.174;2023-11-21T04:09:37;13.70;60.80
3504;DHT22;1766;53.490;10.174;2023-11-21T04:11:39;13.80;60.90
3504;DHT22;1766;53.490;10.174;2023-11-21T04:13:40;13.70;60.70
3504;DHT22;1766;53.490;10.174;2023-11-21T04:15:42;13.80;60.70
3504;DHT22;1766;53.490;10.174;2023-11-21T04:17:46;13.80;60.70
3504;DHT22;1766;53.490;10.174;2023-11-21T04:19:47;13.80;60.60
3504;DHT22;1766;53.490;10.174;2023-11-21T04:21:49;13.80;60.60
3504;DHT22;1766;53.490;10.174;2023-11-21T04:23:51;13.80;60.60
3504;DHT22;1766;53.490;10.174;2023-11-21T04:25:53;13.80;60.50
3504;DHT22;1766;53.490;10.174;2023-11-21T04:27:57;13.80;60.60
3504;DHT22;1766;53.490;10.174;2023-11-21T04:29:59;13.80;60.50
3504;DHT22;1766;53.490;10.174;2023-11-21T04:32:00;13.80;60.50
3504;DHT22;1766;53.490;10.174;2023-11-21T04:34:04;13.80;60.50
3504;DHT22;1766;53.490;10.174;2023-11-21T04:36:06;13.80;60.40
3504;DHT22;1766;53.490;10.174;2023-11-21T04:38:09;13.80;60.50
3504;DHT22;1766;53.490;10.174;2023-11-21T04:40:11;13.80;60.40
3504;DHT22;1766;53.490;10.174;2023-11-21T04:42:13;13.80;60.50
3504;DHT22;1766;53.490;10.174;2023-11-21T04:44:15;13.80;60.30
3504;DHT22;1766;53.490;10.174;2023-11-21T04:46:17;13.80;60.30
3504;DHT22;1766;53.490;10.174;2023-11-21T04:48:20;13.80;60.30
3504;DHT22;1766;53.490;10.174;2023-11-21T04:50:23;13.80;60.20
3504;DHT22;1766;53.490;10.174;2023-11-21T04:52:26;13.80;60.20
3504;DHT22;1766;53.490;10.174;2023-11-21T04:54:28;13.80;60.10
3504;DHT22;1766;53.490;10.174;2023-11-21T04:56:31;13.80;60.00
3504;DHT22;1766;53.490;10.174;2023-11-21T04:58:32;13.80;60.00
3504;DHT22;1766;53.490;10.174;2023-11-21T05:00:33;13.80;60.10
3504;DHT22;1766;53.490;10.174;2023-11-21T05:02:37;13.70;59.90
3504;DHT22;1766;53.490;10.174;2023-11-21T05:04:38;13.70;60.00
3504;DHT22;1766;53.490;10.174;2023-11-21T05:06:41;13.70;60.00
3504;DHT22;1766;53.490;10.174;2023-11-21T05:08:42;13.70;60.00
3504;DHT22;1766;53.490;10.174;2023-11-21T05:10:44;13.70;59.90
3504;DHT22;1766;53.490;10.174;2023-11-21T05:12:46;13.70;60.00
3504;DHT22;1766;53.490;10.174;2023-11-21T05:14:48;13.70;60.00
3504;DHT22;1766;53.490;10.174;2023-11-21T05:16:49;13.70;59.90
3504;DHT22;1766;53.490;10.174;2023-11-21T05:18:52;13.70;59.90
3504;DHT22;1766;53.490;10.174;2023-11-21T05:20:53;13.70;59.80
3504;DHT22;1766;53.490;10.174;2023-11-21T05:22:56;13.70;59.80
3504;DHT22;1766;53.490;10.174;2023-11-21T05:24:59;13.80;59.80
3504;DHT22;1766;53.490;10.174;2023-11-21T05:27:00;13.70;59.80
3504;DHT22;1766;53.490;10.174;2023-11-21T05:29:02;13.80;59.80
3504;DHT22;1766;53.490;10.174;2023-11-21T05:31:04;13.80;59.80
3504;DHT22;1766;53.490;10.174;2023-11-21T05:33:06;13.80;59.80
3504;DHT22;1766;53.490;10.174;2023-11-21T05:35:08;13.80;59.70
3504;DHT22;1766;53.490;10.174;2023-11-21T05:37:14;13.80;59.70
3504;DHT22;1766;53.490;10.174;2023-11-21T05:39:19;13.80;59.60
3504;DHT22;1766;53.490;10.174;2023-11-21T05:41:22;13.80;59.60
3504;DHT22;1766;53.490;10.174;2023-11-21T05:43:23;13.80;59.60
3504;DHT22;1766;53.490;10.174;2023-11-21T05:45:25;13.80;59.60
3504;DHT22;1766;53.490;10.174;2023-11-21T05:47:29;13.80;59.50
3504;DHT22;1766;53.490;10.174;2023-11-21T05:49:30;13.80;59.50
3504;DHT22;1766;53.490;10.174;2023-11-21T05:51:32;13.80;59.50
3504;DHT22;1766;53.490;10.174;2023-11-21T05:53:34;13.80;59.40
3504;DHT22;1766;53.490;10.174;2023-11-21T05:55:37;13.70;59.40
3504;DHT22;1766;53.490;10.174;2023-11-21T05:57:40;13.70;59.30
3504;DHT22;1766;53.490;10.174;2023-11-21T05:59:43;13.70;59.50
3504;DHT22;1766;53.490;10.174;2023-11-21T06:01:46;13.70;59.40
3504;DHT22;1766;53.490;10.174;2023-11-21T06:03:48;13.80;60.10
3504;DHT22;1766;53.490;10.174;2023-11-21T06:05:50;14.10;61.80
3504;DHT22;1766;53.490;10.174;2023-11-21T06:07:53;14.60;63.30
3504;DHT22;1766;53.490;10.174;2023-11-21T06:09:59;15.20;64.30
3504;DHT22;1766;53.490;10.174;2023-11-21T06:12:01;15.80;64.40
3504;DHT22;1766;53.490;10.174;2023-11-21T06:14:03;16.30;64.30
3504;DHT22;1766;53.490;10.174;2023-11-21T06:16:08;16.70;64.00
3504;DHT22;1766;53.490;10.174;2023-11-21T06:18:10;17.10;63.90
3504;DHT22;1766;53.490;10.174;2023-11-21T06:20:12;17.40;63.70
3504;DHT22;1766;53.490;10.174;2023-11-21T06:22:14;17.80;63.50
3504;DHT22;1766;53.490;10.174;2023-11-21T06:24:16;17.90;62.60
3504;DHT22;1766;53.490;10.174;2023-11-21T06:26:18;18.10;62.10
3504;DHT22;1766;53.490;10.174;2023-11-21T06:28:22;18.30;61.60
3504;DHT22;1766;53.490;10.174;2023-11-21T06:30:24;18.40;60.90
3504;DHT22;1766;53.490;10.174;2023-11-21T06:32:25;18.40;59.90
3504;DHT22;1766;53.490;10.174;2023-11-21T06:34:27;18.30;58.50
3504;DHT22;1766;53.490;10.174;2023-11-21T06:36:29;18.00;57.30
3504;DHT22;1766;53.490;10.174;2023-11-21T06:38:31;17.60;56.60
3504;DHT22;1766;53.490;10.174;2023-11-21T06:40:33;17.20;56.30
3504;DHT22;1766;53.490;10.174;2023-11-21T06:42:35;16.80;56.10
3504;DHT22;1766;53.490;10.174;2023-11-21T06:44:40;16.50;55.90
3504;DHT22;1766;53.490;10.174;2023-11-21T06:46:42;16.10;55.90
3504;DHT22;1766;53.490;10.174;2023-11-21T06:48:44;15.90;56.00
3504;DHT22;1766;53.490;10.174;2023-11-21T06:50:45;15.70;55.80
3504;DHT22;1766;53.490;10.174;2023-11-21T06:52:47;15.40;55.80
3504;DHT22;1766;53.490;10.174;2023-11-21T06:54:49;15.30;55.80
3504;DHT22;1766;53.490;10.174;2023-11-21T06:56:51;15.10;55.80
3504;DHT22;1766;53.490;10.174;2023-11-21T06:58:53;15.00;55.80
3504;DHT22;1766;53.490;10.174;2023-11-21T07:00:57;14.90;55.80
3504;DHT22;1766;53.490;10.174;2023-11-21T07:02:59;14.80;55.80
3504;DHT22;1766;53.490;10.174;2023-11-21T07:05:01;14.70;55.80
3504;DHT22;1766;53.490;10.174;2023-11-21T07:07:04;14.60;55.80
3504;DHT22;1766;53.490;10.174;2023-11-21T07:09:07;14.60;55.90
3504;DHT22;1766;53.490;10.174;2023-11-21T07:11:09;14.50;55.80
3504;DHT22;1766;53.490;10.174;2023-11-21T07:13:12;14.50;55.90
3504;DHT22;1766;53.490;10.174;2023-11-21T07:15:14;14.40;55.80
3504;DHT22;1766;53.490;10.174;2023-11-21T07:17:17;14.40;55.90
3504;DHT22;1766;53.490;10.174;2023-11-21T07:19:20;14.30;55.80
3504;DHT22;1766;53.490;10.174;2023-11-21T07:21:22;14.30;55.90
3504;DHT22;1766;53.490;10.174;2023-11-21T07:23:25;14.40;56.00
3504;DHT22;1766;53.490;10.174;2023-11-21T07:25:26;14.20;55.90
3504;DHT22;1766;53.490;10.174;2023-11-21T07:27:28;14.20;55.90
3504;DHT22;1766;53.490;10.174;2023-11-21T07:29:30;14.20;55.90
3504;DHT22;1766;53.490;10.174;2023-11-21T07:31:33;14.10;55.90
3504;DHT22;1766;53.490;10.174;2023-11-21T07:33:37;14.10;55.90
3504;DHT22;1766;53.490;10.174;2023-11-21T07:35:39;14.10;55.90
3504;DHT22;1766;53.490;10.174;2023-11-21T07:37:41;14.10;56.00
3504;DHT22;1766;53.490;10.174;2023-11-21T07:39:43;14.00;56.00
3504;DHT22;1766;53.490;10.174;2023-11-21T07:41:44;14.00;56.00
3504;DHT22;1766;53.490;10.174;2023-11-21T07:43:48;14.00;56.00
3504;DHT22;1766;53.490;10.174;2023-11-21T07:45:50;14.00;56.00
3504;DHT22;1766;53.490;10.174;2023-11-21T07:47:52;14.00;56.00
3504;DHT22;1766;53.490;10.174;2023-11-21T07:49:56;13.90;55.90
3504;DHT22;1766;53.490;10.174;2023-11-21T07:51:58;13.90;55.90
3504;DHT22;1766;53.490;10.174;2023-11-21T07:54:00;13.90;56.10
3504;DHT22;1766;53.490;10.174;2023-11-21T07:56:04;13.80;56.00
3504;DHT22;1766;53.490;10.174;2023-11-21T07:58:08;13.80;56.10
3504;DHT22;1766;53.490;10.174;2023-11-21T08:00:10;13.80;56.10
3504;DHT22;1766;53.490;10.174;2023-11-21T08:02:13;13.80;56.20
3504;DHT22;1766;53.490;10.174;2023-11-21T08:04:14;13.80;56.20
3504;DHT22;1766;53.490;10.174;2023-11-21T08:06:18;13.80;56.20
3504;DHT22;1766;53.490;10.174;2023-11-21T08:08:19;13.80;56.40
3504;DHT22;1766;53.490;10.174;2023-11-21T08:10:21;13.90;56.50
3504;DHT22;1766;53.490;10.174;2023-11-21T08:12:23;13.90;56.50
3504;DHT22;1766;53.490;10.174;2023-11-21T08:14:26;14.00;56.50
3504;DHT22;1766;53.490;10.174;2023-11-21T08:16:28;14.00;56.40
3504;DHT22;1766;53.490;10.174;2023-11-21T08:18:30;14.00;56.40
3504;DHT22;1766;53.490;10.174;2023-11-21T08:20:32;14.00;56.50
3504;DHT22;1766;53.490;10.174;2023-11-21T08:22:38;14.00;56.40
3504;DHT22;1766;53.490;10.174;2023-11-21T08:24:41;14.10;56.50
3504;DHT22;1766;53.490;10.174;2023-11-21T08:26:43;14.00;56.40
3504;DHT22;1766;53.490;10.174;2023-11-21T08:28:45;14.10;56.50
3504;DHT22;1766;53.490;10.174;2023-11-21T08:30:47;14.10;56.50
3504;DHT22;1766;53.490;10.174;2023-11-21T08:32:49;14.10;56.50
3504;DHT22;1766;53.490;10.174;2023-11-21T08:34:52;14.00;56.30
3504;DHT22;1766;53.490;10.174;2023-11-21T08:36:55;14.10;56.40
3504;DHT22;1766;53.490;10.174;2023-11-21T08:38:57;14.10;56.40
3504;DHT22;1766;53.490;10.174;2023-11-21T08:40:59;14.10;56.40
3504;DHT22;1766;53.490;10.174;2023-11-21T08:43:01;14.10;56.30
3504;DHT22;1766;53.490;10.174;2023-11-21T08:45:05;14.00;56.30
3504;DHT22;1766;53.490;10.174;2023-11-21T08:47:09;14.10;56.40
3504;DHT22;1766;53.490;10.174;2023-11-21T08:49:11;14.10;56.20
3504;DHT22;1766;53.490;10.174;2023-11-21T08:51:14;14.10;56.30
3504;DHT22;1766;53.490;10.174;2023-11-21T08:53:16;14.10;56.30
3504;DHT22;1766;53.490;10.174;2023-11-21T08:55:20;14.10;56.30
3504;DHT22;1766;53.490;10.174;2023-11-21T08:57:22;14.20;56.30
3504;DHT22;1766;53.490;10.174;2023-11-21T08:59:24;14.20;56.20
3504;DHT22;1766;53.490;10.174;2023-11-21T09:01:25;14.20;56.20
3504;DHT22;1766;53.490;10.174;2023-11-21T09:03:27;14.20;56.20
3504;DHT22;1766;53.490;10.174;2023-11-21T09:05:30;14.20;56.20
3504;DHT22;1766;53.490;10.174;2023-11-21T09:07:32;14.20;56.10
3504;DHT22;1766;53.490;10.174;2023-11-21T09:09:33;14.20;56.10
3504;DHT22;1766;53.490;10.174;2023-11-21T09:11:36;14.20;56.10
3504;DHT22;1766;53.490;10.174;2023-11-21T09:13:38;14.20;56.10
3504;DHT22;1766;53.490;10.174;2023-11-21T09:15:40;14.20;56.00
3504;DHT22;1766;53.490;10.174;2023-11-21T09:17:40;14.20;55.90
3504;DHT22;1766;53.490;10.174;2023-11-21T09:19:44;14.10;55.80
3504;DHT22;1766;53.490;10.174;2023-11-21T09:21:47;14.10;55.80
3504;DHT22;1766;53.490;10.174;2023-11-21T09:23:49;14.00;55.70
3504;DHT22;1766;53.490;10.174;2023-11-21T09:25:51;14.10;55.90
3504;DHT22;1766;53.490;10.174;2023-11-21T09:27:58;14.10;55.90
3504;DHT22;1766;53.490;10.174;2023-11-21T09:30:00;14.10;55.90
3504;DHT22;1766;53.490;10.174;2023-11-21T09:32:02;14.20;55.90
3504;DHT22;1766;53.490;10.174;2023-11-21T09:34:06;14.20;55.90
3504;DHT22;1766;53.490;10.174;2023-11-21T09:36:11;14.20;55.80
3504;DHT22;1766;53.490;10.174;2023-11-21T09:38:15;14.30;55.80
3504;DHT22;1766;53.490;10.174;2023-11-21T09:40:21;14.30;55.80
3504;DHT22;1766;53.490;10.174;2023-11-21T09:42:29;14.30;55.70
3504;DHT22;1766;53.490;10.174;2023-11-21T09:44:43;14.30;55.70
3504;DHT22;1766;53.490;10.174;2023-11-21T09:46:48;14.20;55.60
3504;DHT22;1766;53.490;10.174;2023-11-21T09:48:51;14.30;55.60
3504;DHT22;1766;53.490;10.174;2023-11-21T09:50:53;14.30;55.70
3504;DHT22;1766;53.490;10.174;2023-11-21T09:52:58;14.30;55.70
3504;DHT22;1766;53.490;10.174;2023-11-21T09:55:06;14.30;55.50
3504;DHT22;1766;53.490;10.174;2023-11-21T09:57:08;14.40;55.60
3504;DHT22;1766;53.490;10.174;2023-11-21T09:59:14;14.40;55.50
3504;DHT22;1766;53.490;10.174;2023-11-21T10:01:18;14.40;55.50
3504;DHT22;1766;53.490;10.174;2023-11-21T10:03:21;14.40;55.50
3504;DHT22;1766;53.490;10.174;2023-11-21T10:05:23;14.40;55.40
3504;DHT22;1766;53.490;10.174;2023-11-21T10:07:25;14.50;55.50
3504;DHT22;1766;53.490;10.174;2023-11-21T10:09:28;14.50;55.40
3504;DHT22;1766;53.490;10.174;2023-11-21T10:11:29;14.50;55.40
3504;DHT22;1766;53.490;10.174;2023-11-21T10:13:32;14.50;55.40
3504;DHT22;1766;53.490;10.174;2023-11-21T10:15:35;14.50;55.40
3504;DHT22;1766;53.490;10.174;2023-11-21T10:17:38;14.50;55.30
3504;DHT22;1766;53.490;10.174;2023-11-21T10:19:44;14.50;55.40
3504;DHT22;1766;53.490;10.174;2023-11-21T10:21:48;14.50;55.30
3504;DHT22;1766;53.490;10.174;2023-11-21T10:23:49;14.50;55.20
3504;DHT22;1766;53.490;10.174;2023-11-21T10:25:52;14.50;55.30
3504;DHT22;1766;53.490;10.174;2023-11-21T10:27:57;14.60;55.30
3504;DHT22;1766;53.490;10.174;2023-11-21T10:30:02;14.60;55.70
3504;DHT22;1766;53.490;10.174;2023-11-21T10:32:05;14.60;55.10
3504;DHT22;1766;53.490;10.174;2023-11-21T10:34:17;14.60;55.10
3504;DHT22;1766;53.490;10.174;2023-11-21T10:36:28;14.60;55.10
3504;DHT22;1766;53.490;10.174;2023-11-21T10:38:33;14.60;55.00
3504;DHT22;1766;53.490;10.174;2023-11-21T10:40:45;14.70;55.10
3504;DHT22;1766;53.490;10.174;2023-11-21T10:42:47;14.70;55.00
3504;DHT22;1766;53.490;10.174;2023-11-21T10:44:50;14.80;55.00
3504;DHT22;1766;53.490;10.174;2023-11-21T10:46:53;14.80;54.90
3504;DHT22;1766;53.490;10.174;2023-11-21T10:48:56;14.80;54.90
3504;DHT22;1766;53.490;10.174;2023-11-21T10:50:59;14.80;54.70
3504;DHT22;1766;53.490;10.174;2023-11-21T10:53:08;14.90;54.70
3504;DHT22;1766;53.490;10.174;2023-11-21T10:55:17;14.80;54.50
3504;DHT22;1766;53.490;10.174;2023-11-21T10:57:21;14.90;54.40
3504;DHT22;1766;53.490;10.174;2023-11-21T10:59:27;14.80;54.30
3504;DHT22;1766;53.490;10.174;2023-11-21T11:01:31;14.80;54.30
3504;DHT22;1766;53.490;10.174;2023-11-21T11:03:32;14.70;54.10
3504;DHT22;1766;53.490;10.174;2023-11-21T11:05:38;14.60;54.10
3504;DHT22;1766;53.490;10.174;2023-11-21T11:07:43;14.60;54.10
3504;DHT22;1766;53.490;10.174;2023-11-21T11:09:45;14.60;54.20
3504;DHT22;1766;53.490;10.174;2023-11-21T11:11:47;14.60;54.20
3504;DHT22;1766;53.490;10.174;2023-11-21T11:13:50;14.70;54.20
3504;DHT22;1766;53.490;10.174;2023-11-21T11:15:58;14.70;54.10
3504;DHT22;1766;53.490;10.174;2023-11-21T11:18:02;14.70;54.00
3504;DHT22;1766;53.490;10.174;2023-11-21T11:20:08;14.60;53.80
3504;DHT22;1766;53.490;10.174;2023-11-21T11:22:25;14.60;53.90
3504;DHT22;1766;53.490;10.174;2023-11-21T11:24:45;14.60;53.80
3504;DHT22;1766;53.490;10.174;2023-11-21T11:27:01;14.60;53.80
3504;DHT22;1766;53.490;10.174;2023-11-21T11:29:15;14.60;53.80
3504;DHT22;1766;53.490;10.174;2023-11-21T11:31:27;14.50;53.80
3504;DHT22;1766;53.490;10.174;2023-11-21T11:33:46;14.50;53.80
3504;DHT22;1766;53.490;10.174;2023-11-21T11:35:56;14.50;53.90
3504;DHT22;1766;53.490;10.174;2023-11-21T11:38:03;14.60;53.90
3504;DHT22;1766;53.490;10.174;2023-11-21T11:40:07;14.60;53.80
3504;DHT22;1766;53.490;10.174;2023-11-21T11:42:13;14.60;53.80
3504;DHT22;1766;53.490;10.174;2023-11-21T11:46:52;14.60;53.50
3504;DHT22;1766;53.490;10.174;2023-11-21T11:49:03;14.50;53.40
3504;DHT22;1766;53.490;10.174;2023-11-21T11:51:06;14.50;53.40
3504;DHT22;1766;53.490;10.174;2023-11-21T11:53:14;14.50;53.40
3504;DHT22;1766;53.490;10.174;2023-11-21T11:55:19;14.40;53.20
3504;DHT22;1766;53.490;10.174;2023-11-21T11:57:24;14.40;53.10
3504;DHT22;1766;53.490;10.174;2023-11-21T11:59:25;14.40;53.00
3504;DHT22;1766;53.490;10.174;2023-11-21T12:01:27;14.50;53.10
3504;DHT22;1766;53.490;10.174;2023-11-21T12:03:28;14.50;52.90
3504;DHT22;1766;53.490;10.174;2023-11-21T12:05:31;14.50;52.90
3504;DHT22;1766;53.490;10.174;2023-11-21T12:07:43;14.50;52.90
3504;DHT22;1766;53.490;10.174;2023-11-21T12:09:46;14.40;52.70
3504;DHT22;1766;53.490;10.174;2023-11-21T12:11:50;14.50;52.70
3504;DHT22;1766;53.490;10.174;2023-11-21T12:13:51;14.50;52.80
3504;DHT22;1766;53.490;10.174;2023-11-21T12:15:53;14.60;52.70
3504;DHT22;1766;53.490;10.174;2023-11-21T12:17:56;14.60;52.70
3504;DHT22;1766;53.490;10.174;2023-11-21T12:20:02;14.60;52.60
3504;DHT22;1766;53.490;10.174;2023-11-21T12:22:04;14.60;52.50
3504;DHT22;1766;53.490;10.174;2023-11-21T12:24:07;14.00;52.00
3504;DHT22;1766;53.490;10.174;2023-11-21T12:26:10;14.60;52.50
3504;DHT22;1766;53.490;10.174;2023-11-21T12:28:13;14.50;52.30
3504;DHT22;1766;53.490;10.174;2023-11-21T12:30:15;14.50;52.30
3504;DHT22;1766;53.490;10.174;2023-11-21T12:32:18;14.50;52.20
3504;DHT22;1766;53.490;10.174;2023-11-21T12:34:21;14.50;52.10
3504;DHT22;1766;53.490;10.174;2023-11-21T12:36:24;14.50;52.10
3504;DHT22;1766;53.490;10.174;2023-11-21T12:38:34;14.40;52.00
3504;DHT22;1766;53.490;10.174;2023-11-21T12:40:36;14.40;52.00
3504;DHT22;1766;53.490;10.174;2023-11-21T12:42:39;14.30;51.90
3504;DHT22;1766;53.490;10.174;2023-11-21T12:44:44;14.30;52.00
3504;DHT22;1766;53.490;10.174;2023-11-21T12:46:48;14.30;52.00
3504;DHT22;1766;53.490;10.174;2023-11-21T12:48:50;14.20;51.80
3504;DHT22;1766;53.490;10.174;2023-11-21T12:50:52;14.30;52.00
3504;DHT22;1766;53.490;10.174;2023-11-21T12:52:59;14.20;51.80
3504;DHT22;1766;53.490;10.174;2023-11-21T12:55:03;14.20;51.80
3504;DHT22;1766;53.490;10.174;2023-11-21T12:57:04;14.10;51.70
3504;DHT22;1766;53.490;10.174;2023-11-21T12:59:08;14.10;51.70
3504;DHT22;1766;53.490;10.174;2023-11-21T13:01:15;14.00;51.70
3504;DHT22;1766;53.490;10.174;2023-11-21T13:03:19;13.90;51.70
3504;DHT22;1766;53.490;10.174;2023-11-21T13:05:27;13.90;51.80
3504;DHT22;1766;53.490;10.174;2023-11-21T13:07:29;13.90;52.00
3504;DHT22;1766;53.490;10.174;2023-11-21T13:09:31;13.90;51.80
3504;DHT22;1766;53.490;10.174;2023-11-21T13:11:34;13.90;51.90